Time;durP1;ratioP1;P1;durP2;ratioP2;P2;SDS_P1;SDS_P2;PMS_P1;PMS_P2;Temp;Humidity;BMP_temperature;BMP_pressure;BME280_temperature;BME280_humidity;BME280_pressure;Samples;Min_cycle;Max_cycle;Signal;HPM_P1;HPM_P2
2022/01/25 00:33:28;;;;;;;8.52;1.52;;;;;;;;;;4973971;28;20030;-60
2022/01/25 00:35:54;;;;;;;2.05;1.67;;;;;;;;;;4973220;28;20043;-60
2022/01/25 00:38:20;;;;;;;1.85;1.25;;;;;;;;;;4974111;28;20079;-60
2022/01/25 00:40:46;;;;;;;5.07;1.77;;;;;;;;;;4973672;28;20513;-60
2022/01/25 00:43:12;;;;;;;2.85;1.40;;;;;;;;;;4973582;28;20056;-61
2022/01/25 00:45:38;;;;;;;3.83;1.92;;;;;;;;;;4973720;28;20025;-61
2022/01/25 00:48:06;;;;;;;4.15;1.50;;;;;;;;;;4973728;28;20019;-64
2022/01/25 00:50:39;;;;;;;3.50;1.48;;;;;;;;;;4973124;28;20054;-60
2022/01/25 00:55:32;;;;;;;4.30;1.73;;;;;;;;;;4973542;28;20118;-60
2022/01/25 00:57:58;;;;;;;2.55;1.80;;;;;;;;;;4973027;28;20144;-62
2022/01/25 01:00:25;;;;;;;3.58;1.52;;;;;;;;;;4973056;28;20112;-61
2022/01/25 01:02:51;;;;;;;6.90;1.58;;;;;;;;;;4973670;28;20019;-61
2022/01/25 01:05:17;;;;;;;2.63;1.60;;;;;;;;;;4962831;28;20073;-61
2022/01/25 01:07:43;;;;;;;1.83;1.73;;;;;;;;;;4973072;28;20053;-61
2022/01/25 01:10:13;;;;;;;2.70;1.48;;;;;;;;;;4972063;28;20019;-60
2022/01/25 01:15:55;;;;;;;2.53;1.67;;;;;;;;;;4972486;28;20041;-61
2022/01/25 01:30:06;;;;;;;6.30;4.07;;;;;;;;;;4973155;28;20037;-64
2022/01/25 01:43:00;;;;;;;5.03;4.00;;;;;;;;;;4972505;28;20089;-61
2022/01/25 01:45:46;;;;;;;10.45;4.30;;;;;;;;;;4972208;28;20497;-61
2022/01/25 01:48:26;;;;;;;6.15;3.30;;;;;;;;;;4972188;28;20021;-62
2022/01/25 01:50:52;;;;;;;7.78;3.00;;;;;;;;;;4971689;28;20023;-61
2022/01/25 01:53:18;;;;;;;10.27;3.38;;;;;;;;;;4972271;28;20556;-61
2022/01/25 01:55:44;;;;;;;5.78;2.95;;;;;;;;;;4972217;28;20052;-61
2022/01/25 01:58:10;;;;;;;8.02;2.88;;;;;;;;;;4972272;28;20164;-61
2022/01/25 02:00:38;;;;;;;6.35;2.78;;;;;;;;;;4971471;28;20034;-61
2022/01/25 02:03:04;;;;;;;9.38;2.67;;;;;;;;;;4972008;28;20227;-61
2022/01/25 02:05:30;;;;;;;5.65;2.20;;;;;;;;;;4971853;28;20011;-61
2022/01/25 02:07:56;;;;;;;5.57;2.33;;;;;;;;;;4971505;28;20394;-61
2022/01/25 02:10:23;;;;;;;7.88;2.50;;;;;;;;;;4970876;28;20034;-61
2022/01/25 02:12:51;;;;;;;10.27;2.00;;;;;;;;;;4971455;28;20035;-61
2022/01/25 02:15:17;;;;;;;6.85;2.10;;;;;;;;;;4971499;28;20030;-61
2022/01/25 02:23:01;;;;;;;3.15;2.13;;;;;;;;;;4971279;28;20118;-61
2022/01/25 02:25:27;;;;;;;4.60;1.70;;;;;;;;;;4971870;28;20758;-61
2022/01/25 02:27:53;;;;;;;10.43;2.10;;;;;;;;;;4971627;28;20077;-61
2022/01/25 02:30:19;;;;;;;2.95;1.90;;;;;;;;;;4960933;28;20019;-61
2022/01/25 02:32:45;;;;;;;11.48;1.85;;;;;;;;;;4971288;28;20031;-61
2022/01/25 02:35:12;;;;;;;4.15;2.00;;;;;;;;;;4971774;28;20030;-61
2022/01/25 02:37:38;;;;;;;5.07;1.90;;;;;;;;;;4971216;28;20035;-61
2022/01/25 02:40:05;;;;;;;2.25;2.00;;;;;;;;;;4971194;28;20030;-63
2022/01/25 02:42:31;;;;;;;4.88;2.10;;;;;;;;;;4960179;28;20026;-61
2022/01/25 02:44:57;;;;;;;2.70;1.88;;;;;;;;;;4971618;28;20102;-61
2022/01/25 02:50:08;;;;;;;1.55;1.42;;;;;;;;;;4971614;28;20041;-62
2022/01/25 02:52:34;;;;;;;2.55;1.90;;;;;;;;;;4971467;28;20046;-61
2022/01/25 02:55:00;;;;;;;4.30;1.92;;;;;;;;;;4970899;28;20042;-62
2022/01/25 02:57:26;;;;;;;2.00;1.52;;;;;;;;;;4970868;28;20094;-61
2022/01/25 02:59:52;;;;;;;2.97;1.90;;;;;;;;;;4971073;28;20109;-61
2022/01/25 03:02:18;;;;;;;3.03;1.63;;;;;;;;;;4970102;28;20131;-61
2022/01/25 03:04:44;;;;;;;2.42;2.22;;;;;;;;;;4970805;28;20027;-61
2022/01/25 03:07:11;;;;;;;1.75;1.58;;;;;;;;;;4971008;28;20018;-62
2022/01/25 03:09:40;;;;;;;2.10;1.70;;;;;;;;;;4970885;28;20113;-60
2022/01/25 03:12:08;;;;;;;2.05;1.88;;;;;;;;;;4960435;28;20875;-62
2022/01/25 03:14:46;;;;;;;3.03;1.95;;;;;;;;;;4970828;28;20559;-60
2022/01/25 03:17:13;;;;;;;3.05;2.22;;;;;;;;;;4970564;28;20053;-60
2022/01/25 03:22:14;;;;;;;2.25;1.90;;;;;;;;;;4970952;28;20026;-62
2022/01/25 03:24:41;;;;;;;2.05;1.90;;;;;;;;;;4971049;28;20035;-61
2022/01/25 03:27:06;;;;;;;3.70;1.80;;;;;;;;;;4970895;28;20034;-61
2022/01/25 03:29:32;;;;;;;2.78;2.13;;;;;;;;;;4970436;28;20035;-61
2022/01/25 03:31:58;;;;;;;3.00;1.67;;;;;;;;;;4970395;28;20113;-62
2022/01/25 03:34:24;;;;;;;3.35;1.83;;;;;;;;;;4970756;28;20031;-61
2022/01/25 03:36:50;;;;;;;4.07;2.25;;;;;;;;;;4973812;28;20037;-61
2022/01/25 03:39:16;;;;;;;2.75;1.77;;;;;;;;;;4975043;28;20034;-61
2022/01/25 03:41:43;;;;;;;2.50;2.30;;;;;;;;;;4974295;28;20126;-62
2022/01/25 03:44:09;;;;;;;2.03;1.80;;;;;;;;;;4965705;28;20034;-61
2022/01/25 03:46:53;;;;;;;2.75;1.95;;;;;;;;;;4974531;28;20529;-61
2022/01/25 03:52:06;;;;;;;1.85;1.70;;;;;;;;;;4973964;28;20492;-61
2022/01/25 03:54:32;;;;;;;2.80;2.47;;;;;;;;;;4974800;28;20027;-60
2022/01/25 03:56:58;;;;;;;2.40;2.20;;;;;;;;;;4974395;28;20022;-61
2022/01/25 03:59:24;;;;;;;4.22;2.05;;;;;;;;;;4974222;28;20515;-61
2022/01/25 04:01:50;;;;;;;2.75;2.15;;;;;;;;;;4974475;28;20077;-60
2022/01/25 04:04:21;;;;;;;3.88;2.10;;;;;;;;;;4974400;28;20027;-61
2022/01/25 04:06:50;;;;;;;2.20;1.88;;;;;;;;;;4974256;28;20083;-60
2022/01/25 04:09:16;;;;;;;4.68;2.05;;;;;;;;;;4973809;28;20371;-60
2022/01/25 04:11:42;;;;;;;2.70;2.17;;;;;;;;;;4973220;28;20030;-60
2022/01/25 04:14:08;;;;;;;1.80;1.70;;;;;;;;;;4974103;28;20022;-60
2022/01/25 04:16:47;;;;;;;4.95;2.20;;;;;;;;;;4973512;28;20129;-60
2022/01/25 04:19:24;;;;;;;3.35;2.20;;;;;;;;;;4964654;28;20035;-61
2022/01/25 04:27:19;;;;;;;3.85;2.03;;;;;;;;;;4974488;28;20029;-61
2022/01/25 04:29:45;;;;;;;2.15;1.95;;;;;;;;;;4973877;28;20035;-61
2022/01/25 04:32:13;;;;;;;2.50;2.30;;;;;;;;;;4973503;28;20393;-61
2022/01/25 04:34:44;;;;;;;2.35;2.15;;;;;;;;;;4973645;28;20145;-61
2022/01/25 04:53:37;;;;;;;3.53;2.33;;;;;;;;;;4973832;28;20090;-60
2022/01/25 04:58:39;;;;;;;2.20;2.00;;;;;;;;;;4973290;28;20049;-60
2022/01/25 05:01:05;;;;;;;2.20;2.00;;;;;;;;;;4973189;28;20022;-61
2022/01/25 05:03:49;;;;;;;1.85;1.75;;;;;;;;;;4973455;28;20078;-60
2022/01/25 05:06:17;;;;;;;2.53;2.20;;;;;;;;;;4972997;28;20031;-60
2022/01/25 05:08:48;;;;;;;2.17;1.98;;;;;;;;;;4973583;28;20073;-61
2022/01/25 05:11:38;;;;;;;2.00;1.80;;;;;;;;;;4972701;28;20410;-60
2022/01/25 05:16:36;;;;;;;10.00;2.10;;;;;;;;;;4972002;28;20062;-61
2022/01/25 05:24:28;;;;;;;2.33;1.88;;;;;;;;;;4972605;28;20482;-60
2022/01/25 05:26:54;;;;;;;4.60;2.58;;;;;;;;;;4973277;28;20034;-61
2022/01/25 05:29:20;;;;;;;6.28;2.75;;;;;;;;;;4962160;28;20023;-60
2022/01/25 05:31:46;;;;;;;7.93;7.07;;;;;;;;;;4972374;28;20023;-61
2022/01/25 05:34:14;;;;;;;14.50;9.57;;;;;;;;;;4972430;28;20368;-62
2022/01/25 05:36:42;;;;;;;12.50;8.90;;;;;;;;;;4962819;28;20830;-61
2022/01/25 05:39:12;;;;;;;15.45;8.20;;;;;;;;;;4972156;28;21327;-61
2022/01/25 05:41:40;;;;;;;9.75;8.77;;;;;;;;;;4970610;28;20046;-61
2022/01/25 05:44:21;;;;;;;11.82;8.82;;;;;;;;;;4956449;28;20030;-63
2022/01/25 05:49:19;;;;;;;10.77;8.50;;;;;;;;;;4972371;28;20033;-60
2022/01/25 05:51:45;;;;;;;12.05;8.45;;;;;;;;;;4972220;28;20023;-61
2022/01/25 05:54:12;;;;;;;8.85;8.02;;;;;;;;;;4971815;28;20019;-61
2022/01/25 05:56:38;;;;;;;12.73;7.40;;;;;;;;;;4972174;28;20071;-61
2022/01/25 05:59:05;;;;;;;8.68;7.70;;;;;;;;;;4971154;28;20066;-61
2022/01/25 06:01:32;;;;;;;8.88;7.97;;;;;;;;;;4972104;28;20038;-60
2022/01/25 06:03:58;;;;;;;8.65;7.75;;;;;;;;;;4972189;28;20027;-61
2022/01/25 06:06:24;;;;;;;13.27;9.52;;;;;;;;;;4971889;28;20114;-59
2022/01/25 06:08:50;;;;;;;27.67;9.80;;;;;;;;;;4972073;28;20174;-59
2022/01/25 06:11:16;;;;;;;32.05;10.55;;;;;;;;;;4971877;28;20023;-59
2022/01/25 06:13:42;;;;;;;51.17;10.85;;;;;;;;;;4960614;28;20067;-59
2022/01/25 06:16:08;;;;;;;48.17;11.57;;;;;;;;;;4971228;28;20089;-60
2022/01/25 06:18:34;;;;;;;61.40;12.20;;;;;;;;;;4969768;28;20041;-63
2022/01/25 06:21:00;;;;;;;25.85;10.38;;;;;;;;;;4970096;28;20035;-60
2022/01/25 06:23:26;;;;;;;42.13;11.88;;;;;;;;;;4972004;28;20027;-61
2022/01/25 06:25:52;;;;;;;39.17;12.93;;;;;;;;;;4971996;28;20031;-61
2022/01/25 06:28:19;;;;;;;21.50;12.00;;;;;;;;;;4971449;28;20069;-60
2022/01/25 06:30:45;;;;;;;43.22;12.20;;;;;;;;;;4961408;28;20034;-62
2022/01/25 06:33:11;;;;;;;15.85;11.75;;;;;;;;;;4971197;28;20445;-62
2022/01/25 06:35:38;;;;;;;16.23;11.18;;;;;;;;;;4971823;28;20054;-61
2022/01/25 06:38:04;;;;;;;19.20;11.65;;;;;;;;;;4973878;28;20170;-61
2022/01/25 06:40:30;;;;;;;22.90;12.07;;;;;;;;;;4953285;28;20039;-60
2022/01/25 06:42:56;;;;;;;21.15;11.55;;;;;;;;;;4961008;28;20081;-60
2022/01/25 06:45:24;;;;;;;19.50;12.65;;;;;;;;;;4971548;28;20035;-62
2022/01/25 06:47:50;;;;;;;16.92;11.68;;;;;;;;;;4973533;28;20443;-63
2022/01/25 06:50:18;;;;;;;15.52;11.98;;;;;;;;;;4973256;28;20055;-61
2022/01/25 06:52:44;;;;;;;14.50;11.35;;;;;;;;;;4973681;28;20034;-61
2022/01/25 06:55:12;;;;;;;18.83;11.25;;;;;;;;;;4971787;28;20030;-61
2022/01/25 06:57:38;;;;;;;14.23;10.77;;;;;;;;;;4979492;28;20079;-60
2022/01/25 07:00:18;;;;;;;14.48;11.00;;;;;;;;;;4976205;28;20027;-61
2022/01/25 07:02:45;;;;;;;20.33;11.55;;;;;;;;;;4979728;28;20448;-63
2022/01/25 07:05:11;;;;;;;21.02;11.63;;;;;;;;;;4980031;28;20027;-62
2022/01/25 07:07:37;;;;;;;23.58;11.48;;;;;;;;;;4972128;28;20089;-61
2022/01/25 07:10:04;;;;;;;14.98;12.25;;;;;;;;;;4974405;28;20084;-62
2022/01/25 07:12:30;;;;;;;17.98;13.55;;;;;;;;;;4978170;28;20033;-61
2022/01/25 07:14:56;;;;;;;17.80;12.75;;;;;;;;;;4976053;28;20019;-61
2022/01/25 07:17:22;;;;;;;19.20;12.50;;;;;;;;;;4978009;28;20386;-61
2022/01/25 07:19:48;;;;;;;19.25;13.48;;;;;;;;;;4963352;28;20043;-63
2022/01/25 07:22:15;;;;;;;16.73;13.73;;;;;;;;;;4981359;28;20038;-61
2022/01/25 07:24:41;;;;;;;14.65;12.93;;;;;;;;;;4978382;28;20030;-64
2022/01/25 07:27:07;;;;;;;18.13;13.63;;;;;;;;;;4970507;28;20015;-64
2022/01/25 07:29:33;;;;;;;20.80;13.75;;;;;;;;;;4961329;28;20034;-61
2022/01/25 07:31:59;;;;;;;14.43;12.90;;;;;;;;;;4981039;28;20086;-61
2022/01/25 07:34:25;;;;;;;15.20;13.65;;;;;;;;;;4971210;28;20038;-62
2022/01/25 07:36:51;;;;;;;17.02;13.82;;;;;;;;;;4970882;28;20445;-62
2022/01/25 07:39:17;;;;;;;14.38;12.93;;;;;;;;;;4971178;28;20038;-62
2022/01/25 07:41:45;;;;;;;15.85;13.52;;;;;;;;;;4979188;28;20018;-62
2022/01/25 07:44:11;;;;;;;15.77;13.68;;;;;;;;;;4971859;28;20105;-63
2022/01/25 07:46:37;;;;;;;15.40;13.70;;;;;;;;;;4970539;28;20047;-62
2022/01/25 07:49:03;;;;;;;15.63;14.02;;;;;;;;;;4970779;28;20035;-61
2022/01/25 07:51:30;;;;;;;16.08;14.38;;;;;;;;;;4970482;28;20518;-61
2022/01/25 07:53:56;;;;;;;17.52;13.23;;;;;;;;;;4970854;28;20027;-62
2022/01/25 07:56:23;;;;;;;16.13;12.75;;;;;;;;;;4971203;28;20034;-61
2022/01/25 07:58:49;;;;;;;15.32;13.82;;;;;;;;;;4972506;28;20035;-62
2022/01/25 08:01:16;;;;;;;18.67;14.40;;;;;;;;;;4971389;28;20372;-63
2022/01/25 08:03:42;;;;;;;15.10;13.57;;;;;;;;;;4959930;28;20489;-61
2022/01/25 08:06:09;;;;;;;15.70;12.85;;;;;;;;;;4970325;28;20046;-64
2022/01/25 08:08:35;;;;;;;18.35;14.52;;;;;;;;;;4970969;28;20529;-61
2022/01/25 08:11:02;;;;;;;15.48;13.88;;;;;;;;;;4972749;28;20077;-61
2022/01/25 08:13:28;;;;;;;15.57;13.98;;;;;;;;;;4970330;28;20035;-61
2022/01/25 08:15:54;;;;;;;14.45;12.95;;;;;;;;;;4969833;28;20454;-63
2022/01/25 08:18:20;;;;;;;15.07;13.57;;;;;;;;;;4960977;28;20022;-61
2022/01/25 08:20:46;;;;;;;14.82;13.35;;;;;;;;;;4972111;28;20027;-61
2022/01/25 08:23:12;;;;;;;13.95;12.55;;;;;;;;;;4973204;28;20019;-62
2022/01/25 08:25:38;;;;;;;16.55;14.13;;;;;;;;;;4963613;28;20038;-61
2022/01/25 08:28:04;;;;;;;15.57;13.98;;;;;;;;;;4973829;28;21217;-62
2022/01/25 08:30:30;;;;;;;16.80;13.93;;;;;;;;;;4973724;28;20069;-62
2022/01/25 08:32:56;;;;;;;14.18;12.68;;;;;;;;;;4973647;28;20077;-61
2022/01/25 08:35:22;;;;;;;15.10;13.50;;;;;;;;;;4975975;28;20550;-61
2022/01/25 08:37:48;;;;;;;15.45;13.85;;;;;;;;;;4975857;28;20061;-61
2022/01/25 08:40:15;;;;;;;17.38;14.80;;;;;;;;;;4975033;28;20479;-63
2022/01/25 08:42:40;;;;;;;15.02;13.45;;;;;;;;;;4976130;28;20019;-61
2022/01/25 08:45:07;;;;;;;15.80;14.13;;;;;;;;;;4972744;28;20019;-62
2022/01/25 08:47:33;;;;;;;15.02;13.40;;;;;;;;;;4973863;28;20022;-61
2022/01/25 08:49:59;;;;;;;14.73;13.20;;;;;;;;;;4973586;28;20694;-62
2022/01/25 08:52:27;;;;;;;15.27;13.68;;;;;;;;;;4968350;28;20031;-61
2022/01/25 08:54:53;;;;;;;14.65;13.20;;;;;;;;;;4973377;28;20027;-63
2022/01/25 08:57:19;;;;;;;15.38;13.88;;;;;;;;;;4973832;28;20422;-63
2022/01/25 08:59:45;;;;;;;14.52;13.13;;;;;;;;;;4963071;28;20478;-63
2022/01/25 09:02:11;;;;;;;14.73;13.23;;;;;;;;;;4973223;28;20138;-62
2022/01/25 09:04:37;;;;;;;15.40;13.90;;;;;;;;;;4973268;28;20221;-62
2022/01/25 09:07:03;;;;;;;14.85;13.38;;;;;;;;;;4962102;28;20035;-63
2022/01/25 09:09:29;;;;;;;16.23;14.23;;;;;;;;;;4974572;28;20038;-62
2022/01/25 09:11:56;;;;;;;18.33;15.48;;;;;;;;;;4973613;28;20022;-61
2022/01/25 09:14:23;;;;;;;22.30;15.13;;;;;;;;;;4973338;28;20155;-63
2022/01/25 09:16:49;;;;;;;37.42;15.23;;;;;;;;;;4962908;28;20146;-62
2022/01/25 09:19:16;;;;;;;62.55;15.00;;;;;;;;;;4963003;28;20153;-62
2022/01/25 09:21:42;;;;;;;28.83;16.85;;;;;;;;;;4962680;28;20050;-62
2022/01/25 09:24:08;;;;;;;33.72;17.58;;;;;;;;;;4976515;28;20034;-62
2022/01/25 09:26:34;;;;;;;36.28;19.45;;;;;;;;;;4972810;28;20054;-64
2022/01/25 09:29:00;;;;;;;32.05;21.15;;;;;;;;;;4972462;28;20050;-62
2022/01/25 09:31:26;;;;;;;37.75;22.80;;;;;;;;;;4973126;28;20062;-62
2022/01/25 09:33:52;;;;;;;37.85;24.05;;;;;;;;;;4972922;28;20015;-61
2022/01/25 09:36:18;;;;;;;31.23;25.73;;;;;;;;;;4973086;28;20396;-62
2022/01/25 09:38:44;;;;;;;48.08;27.67;;;;;;;;;;4972570;28;20035;-62
2022/01/25 09:41:11;;;;;;;55.47;26.80;;;;;;;;;;4972639;28;20059;-62
2022/01/25 09:43:37;;;;;;;54.25;29.83;;;;;;;;;;4972747;28;20101;-62
2022/01/25 09:46:03;;;;;;;43.42;32.08;;;;;;;;;;4961406;28;20527;-61
2022/01/25 09:48:29;;;;;;;45.78;35.28;;;;;;;;;;4974872;28;20085;-61
2022/01/25 09:50:56;;;;;;;47.22;35.42;;;;;;;;;;4973118;28;20023;-61
2022/01/25 09:53:24;;;;;;;40.47;33.50;;;;;;;;;;4987025;28;20521;-61
2022/01/25 09:55:50;;;;;;;42.22;34.58;;;;;;;;;;4974666;28;20015;-60
2022/01/25 09:58:16;;;;;;;42.85;32.75;;;;;;;;;;4976873;28;20038;-60
2022/01/25 10:00:45;;;;;;;43.88;33.70;;;;;;;;;;4974075;28;20030;-60
2022/01/25 10:05:44;;;;;;;38.40;33.13;;;;;;;;;;4972948;28;20038;-61
2022/01/25 10:08:13;;;;;;;41.00;34.15;;;;;;;;;;4971354;28;20117;-62
2022/01/25 10:10:41;;;;;;;41.33;33.38;;;;;;;;;;4972054;28;20030;-61
2022/01/25 10:13:17;;;;;;;45.10;35.38;;;;;;;;;;4973764;28;20050;-63
2022/01/25 10:15:44;;;;;;;42.47;34.28;;;;;;;;;;4973488;28;20066;-62
2022/01/25 10:18:10;;;;;;;43.45;34.60;;;;;;;;;;4973045;28;20023;-60
2022/01/25 10:20:42;;;;;;;43.35;36.00;;;;;;;;;;4972962;28;20027;-60
2022/01/25 10:23:18;;;;;;;47.92;37.95;;;;;;;;;;4973334;28;20081;-61
2022/01/25 10:25:45;;;;;;;44.42;35.53;;;;;;;;;;4974464;28;20105;-62
2022/01/25 10:28:12;;;;;;;42.92;35.10;;;;;;;;;;4971948;28;20113;-61
2022/01/25 10:30:53;;;;;;;42.05;35.13;;;;;;;;;;4972687;28;20030;-62
2022/01/25 10:33:53;;;;;;;43.65;34.22;;;;;;;;;;4971843;28;20070;-62
2022/01/25 10:36:22;;;;;;;46.72;37.00;;;;;;;;;;4972921;28;20019;-61
2022/01/25 10:38:49;;;;;;;46.22;37.90;;;;;;;;;;4956894;28;20039;-61
2022/01/25 10:41:16;;;;;;;45.33;37.35;;;;;;;;;;4958436;28;20023;-61
2022/01/25 10:43:43;;;;;;;45.97;38.22;;;;;;;;;;4973440;28;20023;-62
2022/01/25 10:46:17;;;;;;;51.28;38.08;;;;;;;;;;4971856;28;20459;-62
2022/01/25 10:48:45;;;;;;;46.92;36.53;;;;;;;;;;4974173;28;20031;-62
2022/01/25 10:51:16;;;;;;;73.20;34.88;;;;;;;;;;4971704;28;20029;-60
2022/01/25 10:53:42;;;;;;;41.67;33.03;;;;;;;;;;4973424;28;20039;-60
2022/01/25 10:56:09;;;;;;;56.60;34.28;;;;;;;;;;4971600;28;20048;-60
2022/01/25 10:58:42;;;;;;;50.55;35.05;;;;;;;;;;4970479;28;20034;-60
2022/01/25 11:01:10;;;;;;;49.63;34.50;;;;;;;;;;4970816;28;20038;-61
2022/01/25 11:03:36;;;;;;;46.80;34.85;;;;;;;;;;4973528;28;20019;-62
2022/01/25 11:06:10;;;;;;;46.00;35.65;;;;;;;;;;4957041;28;20154;-62
2022/01/25 11:08:37;;;;;;;52.92;39.03;;;;;;;;;;4970992;28;20462;-61
2022/01/25 11:11:06;;;;;;;44.65;37.63;;;;;;;;;;4971403;28;20031;-61
2022/01/25 11:16:00;;;;;;;50.22;40.13;;;;;;;;;;4970289;28;20066;-61
2022/01/25 11:18:26;;;;;;;54.88;42.85;;;;;;;;;;4971957;28;20062;-61
2022/01/25 11:20:53;;;;;;;54.78;40.50;;;;;;;;;;4970837;28;20054;-61
2022/01/25 11:23:19;;;;;;;55.03;42.50;;;;;;;;;;4971447;28;20472;-61
2022/01/25 11:25:46;;;;;;;51.45;40.10;;;;;;;;;;4973402;28;20035;-61
2022/01/25 11:28:12;;;;;;;52.70;38.22;;;;;;;;;;4972510;28;20420;-62
2022/01/25 11:30:40;;;;;;;47.40;38.75;;;;;;;;;;4969322;28;20027;-62
2022/01/25 11:33:09;;;;;;;54.90;42.58;;;;;;;;;;4971166;28;20066;-62
2022/01/25 11:35:35;;;;;;;59.72;42.20;;;;;;;;;;4969492;28;20015;-62
2022/01/25 11:38:01;;;;;;;58.40;42.15;;;;;;;;;;4970796;28;20039;-61
2022/01/25 11:40:35;;;;;;;53.80;40.47;;;;;;;;;;4973061;28;20401;-61
2022/01/25 11:43:06;;;;;;;51.22;41.03;;;;;;;;;;4971953;28;20026;-62
2022/01/25 11:45:38;;;;;;;50.25;39.95;;;;;;;;;;4970753;28;20470;-61
2022/01/25 11:48:05;;;;;;;49.92;39.45;;;;;;;;;;4971190;28;20114;-60
2022/01/25 11:50:35;;;;;;;50.20;39.15;;;;;;;;;;4973232;28;20041;-61
2022/01/25 11:53:06;;;;;;;51.15;39.00;;;;;;;;;;4970759;28;20023;-61
2022/01/25 11:55:40;;;;;;;49.75;36.83;;;;;;;;;;4970511;28;20490;-62
2022/01/25 11:58:07;;;;;;;53.28;39.22;;;;;;;;;;4973957;28;20038;-62
2022/01/25 12:00:36;;;;;;;56.95;44.22;;;;;;;;;;4959667;28;20077;-61
2022/01/25 12:03:04;;;;;;;58.50;44.20;;;;;;;;;;4974918;28;20031;-61
2022/01/25 12:05:33;;;;;;;61.20;44.10;;;;;;;;;;4972989;28;20030;-61
2022/01/25 12:08:07;;;;;;;61.15;44.50;;;;;;;;;;4973961;28;21153;-61
2022/01/25 12:10:34;;;;;;;54.58;43.10;;;;;;;;;;4973706;28;20055;-61
2022/01/25 12:13:16;;;;;;;59.10;46.05;;;;;;;;;;4974172;28;20062;-62
2022/01/25 12:15:42;;;;;;;63.47;43.13;;;;;;;;;;4973748;28;20055;-61
2022/01/25 12:18:09;;;;;;;51.08;40.50;;;;;;;;;;4963167;28;20067;-61
2022/01/25 12:20:46;;;;;;;61.03;39.97;;;;;;;;;;4960667;28;20094;-61
2022/01/25 12:23:19;;;;;;;56.85;40.20;;;;;;;;;;4974432;28;20018;-62
2022/01/25 12:25:55;;;;;;;51.05;37.58;;;;;;;;;;4962725;28;20023;-62
2022/01/25 12:28:22;;;;;;;49.72;39.35;;;;;;;;;;4974919;28;20053;-61
2022/01/25 12:30:48;;;;;;;55.97;40.63;;;;;;;;;;4976347;28;20023;-62
2022/01/25 12:33:20;;;;;;;51.63;40.13;;;;;;;;;;4975349;28;20031;-62
2022/01/25 12:35:47;;;;;;;52.47;40.42;;;;;;;;;;4975603;28;20429;-62
2022/01/25 12:38:33;;;;;;;53.30;41.83;;;;;;;;;;4958511;28;20070;-62
2022/01/25 12:41:00;;;;;;;58.08;43.40;;;;;;;;;;4950907;28;20039;-62
2022/01/25 12:43:50;;;;;;;66.72;44.05;;;;;;;;;;4960845;28;20383;-62
2022/01/25 12:46:20;;;;;;;59.85;44.95;;;;;;;;;;4957706;28;20165;-62
2022/01/25 12:48:47;;;;;;;60.40;45.25;;;;;;;;;;4975246;28;20041;-62
2022/01/25 12:51:17;;;;;;;71.88;48.03;;;;;;;;;;4975966;28;20026;-64
2022/01/25 12:53:44;;;;;;;62.58;46.70;;;;;;;;;;4974658;28;20019;-63
2022/01/25 12:56:16;;;;;;;61.70;45.97;;;;;;;;;;4962827;28;20023;-62
2022/01/25 12:58:42;;;;;;;59.53;43.85;;;;;;;;;;4972712;28;20031;-63
2022/01/25 13:01:10;;;;;;;58.40;44.42;;;;;;;;;;4972980;28;20026;-61
2022/01/25 13:03:57;;;;;;;58.13;43.67;;;;;;;;;;4975124;28;20505;-61
2022/01/25 13:06:24;;;;;;;56.38;43.33;;;;;;;;;;4966188;28;20023;-62
2022/01/25 13:09:04;;;;;;;54.80;42.35;;;;;;;;;;4974826;28;20041;-61
2022/01/25 13:12:10;;;;;;;64.72;46.42;;;;;;;;;;4973214;28;20023;-62
2022/01/25 13:17:12;;;;;;;65.22;45.47;;;;;;;;;;4974541;28;20042;-62
2022/01/25 13:19:43;;;;;;;68.40;46.17;;;;;;;;;;4974664;28;20386;-62
2022/01/25 13:22:13;;;;;;;61.55;45.72;;;;;;;;;;4973668;28;20454;-61
2022/01/25 13:24:47;;;;;;;67.00;47.20;;;;;;;;;;4974915;28;20490;-62
2022/01/25 13:27:14;;;;;;;66.18;45.85;;;;;;;;;;4971419;28;20030;-62
2022/01/25 13:32:27;;;;;;;57.78;41.75;;;;;;;;;;4973028;28;20402;-62
2022/01/25 13:35:01;;;;;;;60.22;43.25;;;;;;;;;;4972328;28;20035;-61
2022/01/25 13:37:27;;;;;;;57.92;41.97;;;;;;;;;;4965446;28;20027;-61
2022/01/25 13:39:58;;;;;;;57.78;42.38;;;;;;;;;;4972800;28;20066;-61
2022/01/25 13:42:29;;;;;;;55.63;41.17;;;;;;;;;;4973904;28;20494;-63
2022/01/25 13:48:04;;;;;;;57.08;41.53;;;;;;;;;;4973476;28;20038;-63
2022/01/25 13:50:30;;;;;;;51.80;39.05;;;;;;;;;;4972331;28;20044;-63
2022/01/25 13:52:56;;;;;;;56.35;40.13;;;;;;;;;;4972107;28;20030;-62
2022/01/25 13:55:22;;;;;;;51.55;39.03;;;;;;;;;;4971880;28;20022;-62
2022/01/25 13:57:48;;;;;;;53.47;36.72;;;;;;;;;;4970910;28;20058;-62
2022/01/25 14:00:15;;;;;;;51.40;39.17;;;;;;;;;;4971026;28;20451;-63
2022/01/25 14:02:41;;;;;;;48.58;37.95;;;;;;;;;;4962171;28;20031;-62
2022/01/25 14:05:07;;;;;;;52.40;38.50;;;;;;;;;;4971692;28;20031;-63
2022/01/25 14:07:37;;;;;;;52.72;39.38;;;;;;;;;;4971850;28;20026;-64
2022/01/25 14:10:07;;;;;;;52.97;40.60;;;;;;;;;;4961331;28;20053;-63
2022/01/25 14:23:47;;;;;;;55.03;40.20;;;;;;;;;;4971538;28;20046;-62
2022/01/25 14:26:13;;;;;;;55.83;40.80;;;;;;;;;;4971641;28;20074;-62
2022/01/25 14:28:43;;;;;;;55.67;40.00;;;;;;;;;;4972046;28;20023;-63
2022/01/25 14:31:19;;;;;;;59.03;41.78;;;;;;;;;;4970598;28;20026;-63
2022/01/25 14:33:52;;;;;;;58.38;41.00;;;;;;;;;;4971637;28;20023;-62
2022/01/25 14:36:20;;;;;;;60.53;40.97;;;;;;;;;;4969140;28;20043;-63
2022/01/25 14:38:47;;;;;;;57.28;41.10;;;;;;;;;;4971575;28;20074;-62
2022/01/25 14:41:13;;;;;;;52.10;40.22;;;;;;;;;;4971789;28;20418;-62
2022/01/25 14:43:50;;;;;;;56.58;41.35;;;;;;;;;;4973572;28;20545;-61
2022/01/25 14:46:23;;;;;;;56.40;41.33;;;;;;;;;;4970138;28;20034;-62
2022/01/25 14:49:23;;;;;;;54.65;40.63;;;;;;;;;;4970661;28;20057;-62
2022/01/25 14:51:53;;;;;;;53.00;39.03;;;;;;;;;;4966650;28;20039;-63
2022/01/25 14:54:21;;;;;;;49.22;36.80;;;;;;;;;;4971675;28;20085;-66
2022/01/25 14:56:51;;;;;;;46.28;34.15;;;;;;;;;;4973120;28;20391;-63
2022/01/25 14:59:25;;;;;;;45.03;33.25;;;;;;;;;;4972053;28;20074;-63
2022/01/25 15:01:53;;;;;;;47.35;35.35;;;;;;;;;;4970845;28;20022;-63
2022/01/25 15:04:19;;;;;;;47.58;35.42;;;;;;;;;;4970705;28;20098;-64
2022/01/25 15:06:45;;;;;;;44.30;34.03;;;;;;;;;;4970494;28;20118;-63
2022/01/25 15:09:13;;;;;;;45.58;35.30;;;;;;;;;;4969473;28;20467;-66
2022/01/25 15:11:39;;;;;;;48.38;34.92;;;;;;;;;;4970347;28;20019;-63
2022/01/25 15:14:16;;;;;;;44.20;33.97;;;;;;;;;;4970580;28;20390;-63
2022/01/25 15:16:42;;;;;;;48.25;35.38;;;;;;;;;;4971826;28;20062;-65
2022/01/25 15:19:08;;;;;;;47.67;35.15;;;;;;;;;;4973352;28;20045;-64
2022/01/25 15:21:34;;;;;;;44.58;33.53;;;;;;;;;;4971730;28;20022;-64
2022/01/25 15:24:01;;;;;;;49.03;36.38;;;;;;;;;;4972873;28;20062;-64
2022/01/25 15:26:30;;;;;;;48.85;33.85;;;;;;;;;;4971073;28;20032;-64
2022/01/25 15:28:58;;;;;;;47.95;34.40;;;;;;;;;;4972041;28;20022;-64
2022/01/25 15:31:25;;;;;;;52.22;35.80;;;;;;;;;;4965947;28;20070;-64
2022/01/25 15:33:52;;;;;;;47.05;35.25;;;;;;;;;;4977355;28;20031;-65
2022/01/25 15:36:19;;;;;;;50.80;37.90;;;;;;;;;;4976524;28;20105;-66
2022/01/25 15:38:46;;;;;;;50.13;36.78;;;;;;;;;;4970887;28;20066;-63
2022/01/25 15:41:12;;;;;;;51.42;36.95;;;;;;;;;;4976651;28;20393;-64
2022/01/25 15:43:58;;;;;;;45.65;34.25;;;;;;;;;;4975716;28;20504;-65
2022/01/25 15:48:56;;;;;;;49.70;36.15;;;;;;;;;;4977156;28;20034;-65
2022/01/25 15:51:23;;;;;;;50.00;34.88;;;;;;;;;;4975115;28;20050;-64
2022/01/25 15:53:49;;;;;;;48.85;36.22;;;;;;;;;;4977259;28;20089;-65
2022/01/25 15:56:16;;;;;;;52.13;37.60;;;;;;;;;;4976739;28;20033;-64
2022/01/25 15:58:43;;;;;;;54.42;38.33;;;;;;;;;;4977858;28;20049;-64
2022/01/25 16:01:10;;;;;;;51.05;37.75;;;;;;;;;;4978309;28;20081;-64
2022/01/25 16:03:36;;;;;;;50.35;36.47;;;;;;;;;;4977035;28;20041;-66
2022/01/25 16:06:03;;;;;;;51.70;36.50;;;;;;;;;;4976991;28;20022;-64
2022/01/25 16:08:29;;;;;;;45.97;34.67;;;;;;;;;;4976914;28;20165;-65
2022/01/25 16:10:55;;;;;;;52.17;36.40;;;;;;;;;;4976391;28;20019;-64
2022/01/25 16:13:21;;;;;;;50.55;36.20;;;;;;;;;;4966351;28;20046;-64
2022/01/25 16:15:47;;;;;;;52.40;37.10;;;;;;;;;;4976712;28;20038;-63
2022/01/25 16:18:13;;;;;;;67.22;36.38;;;;;;;;;;4977845;28;20042;-64
2022/01/25 16:20:39;;;;;;;57.58;36.53;;;;;;;;;;4963738;28;20109;-65
2022/01/25 16:23:06;;;;;;;48.03;34.70;;;;;;;;;;4976862;28;20157;-64
2022/01/25 16:25:33;;;;;;;55.08;36.50;;;;;;;;;;4976442;28;20061;-66
2022/01/25 16:27:59;;;;;;;44.42;32.15;;;;;;;;;;4976785;28;20051;-65
2022/01/25 16:30:25;;;;;;;39.42;30.50;;;;;;;;;;4975804;28;20073;-63
2022/01/25 16:32:52;;;;;;;43.83;30.70;;;;;;;;;;4966207;28;20430;-64
2022/01/25 16:35:20;;;;;;;38.55;29.45;;;;;;;;;;4977416;28;20023;-64
2022/01/25 16:37:46;;;;;;;43.22;30.67;;;;;;;;;;4975450;28;20019;-63
2022/01/25 16:40:13;;;;;;;42.38;30.58;;;;;;;;;;4977013;28;20035;-64
2022/01/25 16:42:39;;;;;;;46.33;31.40;;;;;;;;;;4976066;28;20034;-63
2022/01/25 16:45:06;;;;;;;38.58;27.98;;;;;;;;;;4973944;28;20394;-64